createdAt,value
2022-11-04T00:01:51.526Z,11.10
2022-11-04T00:04:22.604Z,11.10
2022-11-04T00:06:50.896Z,11.00
2022-11-04T00:09:20.923Z,10.90
2022-11-04T00:12:07.040Z,10.90
2022-11-04T00:14:36.032Z,10.80
2022-11-04T00:17:22.836Z,10.70
2022-11-04T00:20:10.960Z,10.70
2022-11-04T00:22:57.431Z,10.70
2022-11-04T00:25:43.300Z,10.50
2022-11-04T00:28:31.051Z,10.60
2022-11-04T00:31:21.075Z,10.70
2022-11-04T00:33:48.956Z,10.60
2022-11-04T00:36:18.475Z,10.60
2022-11-04T00:38:46.595Z,10.50
2022-11-04T00:41:27.441Z,10.50
2022-11-04T00:43:57.116Z,10.60
2022-11-04T00:46:25.762Z,10.50
2022-11-04T00:48:53.948Z,10.50
2022-11-04T00:51:23.573Z,10.40
2022-11-04T00:53:52.061Z,10.40
2022-11-04T00:56:20.130Z,10.30
2022-11-04T00:58:50.022Z,10.30
2022-11-04T01:01:19.433Z,10.10
2022-11-04T01:03:49.235Z,10.10
2022-11-04T01:06:17.860Z,10.20
2022-11-04T01:08:48.165Z,10.20
2022-11-04T01:11:16.583Z,10.20
2022-11-04T01:13:44.524Z,10.20
2022-11-04T01:16:13.695Z,10.20
2022-11-04T01:18:42.668Z,10.10
2022-11-04T01:21:13.550Z,10.00
2022-11-04T01:23:43.008Z,10.00
2022-11-04T01:26:15.788Z,9.90
2022-11-04T01:28:43.853Z,9.90
2022-11-04T01:31:13.794Z,9.80
2022-11-04T01:33:42.059Z,9.80
2022-11-04T01:36:15.316Z,9.90
2022-11-04T01:38:43.429Z,9.90
2022-11-04T01:41:19.471Z,9.90
2022-11-04T01:43:51.307Z,9.90
2022-11-04T01:46:28.325Z,9.90
2022-11-04T01:49:01.163Z,9.90
2022-11-04T01:51:33.274Z,9.90
2022-11-04T01:54:03.300Z,9.90
2022-11-04T01:56:34.241Z,9.90
2022-11-04T01:59:06.849Z,9.90
2022-11-04T02:01:35.484Z,9.90
2022-11-04T02:04:17.458Z,9.90
2022-11-04T02:06:46.809Z,9.80
2022-11-04T02:09:15.255Z,9.80
2022-11-04T02:12:02.343Z,9.90
2022-11-04T02:14:31.393Z,9.90
2022-11-04T02:17:06.855Z,9.90
2022-11-04T02:19:59.937Z,9.90
2022-11-04T02:22:56.927Z,9.90
2022-11-04T02:26:02.641Z,9.90
2022-11-04T02:29:06.641Z,9.90
2022-11-04T02:31:41.296Z,10.00
2022-11-04T02:34:18.440Z,10.00
2022-11-04T02:36:53.469Z,10.00
2022-11-04T02:39:30.050Z,10.10
2022-11-04T02:42:02.523Z,10.00
2022-11-04T02:44:32.677Z,10.10
2022-11-04T02:47:06.192Z,10.10
2022-11-04T02:49:39.475Z,10.10
2022-11-04T02:52:10.828Z,10.10
2022-11-04T02:54:43.598Z,10.00
2022-11-04T02:57:16.197Z,9.90
2022-11-04T02:59:48.680Z,10.00
2022-11-04T03:02:23.555Z,9.90
2022-11-04T03:04:53.793Z,9.80
2022-11-04T03:07:28.393Z,9.80
2022-11-04T03:10:03.488Z,9.80
2022-11-04T03:12:36.717Z,9.70
2022-11-04T03:15:10.064Z,9.90
2022-11-04T03:17:45.041Z,9.80
2022-11-04T03:20:18.227Z,9.90
2022-11-04T03:22:46.482Z,10.00
2022-11-04T03:25:14.857Z,9.90
2022-11-04T03:27:49.144Z,10.00
2022-11-04T03:30:20.108Z,9.90
2022-11-04T03:32:59.380Z,9.90
2022-11-04T03:35:29.003Z,9.90
2022-11-04T03:37:58.260Z,9.80
2022-11-04T03:40:27.352Z,9.90
2022-11-04T03:42:59.013Z,9.80
2022-11-04T03:45:27.900Z,9.90
2022-11-04T03:47:58.208Z,9.90
2022-11-04T03:50:29.795Z,9.90
2022-11-04T03:52:59.476Z,9.90
2022-11-04T03:55:39.237Z,9.80
2022-11-04T03:58:12.232Z,9.90
2022-11-04T04:00:45.702Z,9.80
2022-11-04T04:03:18.912Z,9.80
2022-11-04T04:05:53.735Z,9.90
2022-11-04T04:08:33.060Z,9.80
2022-11-04T04:11:09.135Z,9.80
2022-11-04T04:13:43.560Z,9.90
2022-11-04T04:16:16.686Z,9.90
2022-11-04T04:18:54.165Z,9.90
2022-11-04T04:21:30.034Z,9.90
2022-11-04T04:24:18.423Z,9.90
2022-11-04T04:27:05.569Z,9.90
2022-11-04T04:29:34.051Z,9.90
2022-11-04T04:32:03.997Z,10.00
2022-11-04T04:34:34.377Z,10.00
2022-11-04T04:37:10.257Z,9.90
2022-11-04T04:40:00.827Z,9.90
2022-11-04T04:42:50.637Z,9.80
2022-11-04T04:45:23.803Z,9.70
2022-11-04T04:47:52.720Z,9.80
2022-11-04T04:50:23.161Z,9.80
2022-11-04T04:52:53.980Z,9.80
2022-11-04T04:55:22.379Z,9.70
2022-11-04T04:57:50.764Z,9.70
2022-11-04T05:00:21.251Z,9.90
2022-11-04T05:02:50.331Z,9.90
2022-11-04T05:05:18.554Z,10.00
2022-11-04T05:07:48.042Z,9.90
2022-11-04T05:10:17.578Z,9.90
2022-11-04T05:13:03.399Z,9.90
2022-11-04T05:15:32.788Z,9.80
2022-11-04T05:18:02.471Z,9.90
2022-11-04T05:20:33.956Z,9.80
2022-11-04T05:23:03.385Z,9.80
2022-11-04T05:25:31.627Z,9.80
2022-11-04T05:28:01.777Z,9.60
2022-11-04T05:30:30.371Z,9.70
2022-11-04T05:33:01.800Z,9.70
2022-11-04T05:35:33.216Z,9.60
2022-11-04T05:38:01.265Z,9.60
2022-11-04T05:40:30.755Z,9.60
2022-11-04T05:42:59.828Z,9.60
2022-11-04T05:45:27.912Z,9.40
2022-11-04T05:48:00.233Z,9.50
2022-11-04T05:50:28.650Z,9.70
2022-11-04T05:52:58.212Z,9.60
2022-11-04T05:55:26.217Z,9.60
2022-11-04T05:57:57.751Z,9.50
2022-11-04T06:00:26.174Z,9.30
2022-11-04T06:02:57.246Z,9.30
2022-11-04T06:05:25.933Z,9.30
2022-11-04T06:07:54.083Z,9.40
2022-11-04T06:10:22.171Z,9.40
2022-11-04T06:12:50.252Z,9.30
2022-11-04T06:15:19.585Z,9.20
2022-11-04T06:17:47.926Z,9.00
2022-11-04T06:20:16.534Z,9.00
2022-11-04T06:22:44.647Z,8.90
2022-11-04T06:25:12.896Z,9.10
2022-11-04T06:27:41.325Z,9.20
2022-11-04T06:30:11.025Z,9.00
2022-11-04T06:32:40.424Z,9.00
2022-11-04T06:35:09.345Z,9.00
2022-11-04T06:37:37.837Z,8.90
2022-11-04T06:40:07.043Z,8.90
2022-11-04T06:42:35.055Z,9.00
2022-11-04T06:45:03.119Z,9.00
2022-11-04T06:47:31.231Z,9.20
2022-11-04T06:50:00.728Z,9.30
2022-11-04T06:52:28.804Z,9.30
2022-11-04T06:54:56.761Z,9.50
2022-11-04T06:57:24.741Z,9.40
2022-11-04T06:59:53.684Z,9.20
2022-11-04T07:02:21.807Z,9.10
2022-11-04T07:04:50.219Z,9.10
2022-11-04T07:07:21.143Z,9.20
2022-11-04T07:09:49.324Z,9.20
2022-11-04T07:12:17.467Z,9.10
2022-11-04T07:14:45.565Z,9.00
2022-11-04T07:17:13.628Z,9.10
2022-11-04T07:19:41.693Z,9.10
2022-11-04T07:22:09.896Z,8.90
2022-11-04T07:24:39.452Z,8.90
2022-11-04T07:27:07.858Z,8.80
2022-11-04T07:29:36.073Z,8.80
2022-11-04T07:32:05.602Z,8.90
2022-11-04T07:34:33.636Z,8.80
2022-11-04T07:37:01.795Z,8.90
2022-11-04T07:39:29.977Z,9.10
2022-11-04T07:41:59.855Z,9.10
2022-11-04T07:44:28.123Z,9.10
2022-11-04T07:46:56.406Z,9.00
2022-11-04T07:49:25.350Z,9.10
2022-11-04T07:51:53.508Z,9.20
2022-11-04T07:54:21.544Z,9.30
2022-11-04T07:56:49.602Z,9.40
2022-11-04T07:59:18.971Z,9.40
2022-11-04T08:01:47.207Z,9.40
2022-11-04T08:04:15.322Z,9.30
2022-11-04T08:06:57.251Z,9.20
2022-11-04T08:12:31.568Z,9.10
2022-11-04T08:15:01.894Z,9.10
2022-11-04T08:17:30.738Z,9.20
2022-11-04T08:19:58.928Z,9.20
2022-11-04T08:22:32.609Z,9.30
2022-11-04T08:25:01.148Z,9.40
2022-11-04T08:27:29.512Z,9.30
2022-11-04T08:29:57.617Z,9.20
2022-11-04T08:32:27.058Z,9.30
2022-11-04T08:34:55.171Z,9.40
2022-11-04T08:37:23.253Z,9.30
2022-11-04T08:39:51.421Z,9.30
2022-11-04T08:42:19.546Z,9.40
2022-11-04T08:44:47.580Z,9.50
2022-11-04T08:47:18.052Z,9.50
2022-11-04T08:49:47.543Z,9.60
2022-11-04T08:52:15.606Z,9.70
2022-11-04T08:54:44.778Z,9.80
2022-11-04T08:57:12.953Z,9.90
2022-11-04T08:59:41.017Z,10.00
2022-11-04T09:02:12.231Z,10.10
2022-11-04T09:04:40.431Z,10.10
2022-11-04T09:07:10.309Z,10.10
2022-11-04T09:09:39.500Z,10.00
2022-11-04T09:12:10.996Z,9.90
2022-11-04T09:14:39.216Z,9.90
2022-11-04T09:17:07.221Z,9.90
2022-11-04T09:19:35.206Z,9.90
2022-11-04T09:22:10.224Z,9.90
2022-11-04T09:24:38.338Z,9.90
2022-11-04T09:27:06.595Z,9.90
2022-11-04T09:29:36.361Z,10.00
2022-11-04T09:32:04.946Z,10.10
2022-11-04T09:34:33.433Z,10.30
2022-11-04T09:37:01.881Z,10.30
2022-11-04T09:39:31.358Z,10.40
2022-11-04T09:42:14.643Z,10.40
2022-11-04T09:45:19.608Z,10.40
2022-11-04T09:47:41.881Z,10.30
2022-11-04T09:50:17.323Z,10.10
2022-11-04T09:52:52.774Z,10.00
2022-11-04T09:55:27.167Z,9.90
2022-11-04T09:57:58.046Z,9.90
2022-11-04T10:00:27.141Z,9.90
2022-11-04T10:03:06.146Z,9.80
2022-11-04T10:05:53.979Z,9.90
2022-11-04T10:08:41.697Z,9.90
2022-11-04T10:11:16.920Z,9.90
2022-11-04T10:13:58.948Z,9.90
2022-11-04T10:16:41.489Z,10.00
2022-11-04T10:19:29.569Z,10.10
2022-11-04T10:22:04.984Z,10.20
2022-11-04T10:24:42.728Z,10.20
2022-11-04T10:27:18.641Z,10.20
2022-11-04T10:29:49.640Z,10.20
2022-11-04T10:32:22.709Z,10.40
2022-11-04T10:34:55.994Z,10.50
2022-11-04T10:37:26.223Z,10.50
2022-11-04T10:40:01.573Z,10.50
2022-11-04T10:42:31.153Z,10.60
2022-11-04T10:44:59.370Z,10.60
2022-11-04T10:47:41.088Z,10.60
2022-11-04T10:50:33.519Z,10.60
2022-11-04T10:53:13.606Z,10.70
2022-11-04T10:55:48.879Z,10.90
2022-11-04T10:58:24.105Z,11.00
2022-11-04T11:00:53.232Z,11.10
2022-11-04T11:03:28.655Z,11.20
2022-11-04T11:06:15.814Z,11.10
2022-11-04T11:08:45.392Z,11.00
2022-11-04T11:11:15.391Z,11.00
2022-11-04T11:13:47.464Z,11.00
2022-11-04T11:16:20.658Z,11.00
2022-11-04T11:19:14.017Z,11.00
2022-11-04T11:21:45.242Z,11.00
2022-11-04T11:24:20.630Z,11.00
2022-11-04T11:26:50.677Z,11.00
2022-11-04T11:29:25.703Z,11.00
2022-11-04T11:31:55.874Z,10.90
2022-11-04T11:34:27.784Z,11.00
2022-11-04T11:36:57.928Z,11.00
2022-11-04T11:39:28.521Z,11.00
2022-11-04T11:42:00.443Z,11.00
2022-11-04T11:44:44.129Z,11.00
2022-11-04T11:47:22.370Z,10.90
2022-11-04T11:50:08.097Z,10.90
2022-11-04T11:52:38.414Z,10.80
2022-11-04T11:55:13.276Z,10.80
2022-11-04T12:00:52.083Z,10.90
2022-11-04T12:09:34.619Z,11.00
2022-11-04T12:12:19.668Z,11.10
2022-11-04T12:15:00.418Z,11.10
2022-11-04T12:17:45.238Z,11.20
2022-11-04T12:20:25.676Z,11.20
2022-11-04T12:23:02.460Z,11.20
2022-11-04T12:25:38.698Z,11.30
2022-11-04T12:28:19.764Z,11.30
2022-11-04T12:31:02.173Z,11.30
2022-11-04T12:33:38.669Z,11.30
2022-11-04T12:36:21.387Z,11.40
2022-11-04T12:39:06.086Z,11.40
2022-11-04T12:42:14.255Z,11.40
2022-11-04T12:44:34.928Z,11.30
2022-11-04T12:47:15.606Z,11.40
2022-11-04T12:50:19.131Z,11.40
2022-11-04T12:53:10.768Z,11.30
2022-11-04T12:55:49.024Z,11.40
2022-11-04T12:58:27.945Z,11.40
2022-11-04T13:01:02.851Z,11.40
2022-11-04T13:03:36.001Z,11.40
2022-11-04T13:06:13.112Z,11.40
2022-11-04T13:08:47.775Z,11.40
2022-11-04T13:11:24.052Z,11.30
2022-11-04T13:14:02.130Z,11.30
2022-11-04T13:16:32.729Z,11.30
2022-11-04T13:19:01.989Z,11.20
2022-11-04T13:21:36.447Z,11.30
2022-11-04T13:24:07.314Z,11.30
2022-11-04T13:26:35.360Z,11.30
2022-11-04T13:29:09.241Z,11.20
2022-11-04T13:31:47.985Z,11.20
2022-11-04T13:34:28.620Z,11.20
2022-11-04T13:37:08.835Z,11.20
2022-11-04T13:39:42.475Z,11.20
2022-11-04T13:42:29.925Z,11.30
2022-11-04T13:45:04.987Z,11.30
2022-11-04T13:47:38.949Z,11.30
2022-11-04T13:50:07.976Z,11.30
2022-11-04T13:52:52.821Z,11.30
2022-11-04T13:55:22.217Z,11.40
2022-11-04T13:57:55.499Z,11.40
2022-11-04T14:00:25.440Z,11.40
2022-11-04T14:02:54.664Z,11.40
2022-11-04T14:06:04.016Z,11.40
2022-11-04T14:08:34.272Z,11.40
2022-11-04T14:11:08.688Z,11.30
2022-11-04T14:14:07.409Z,11.30
2022-11-04T14:16:45.703Z,11.30
2022-11-04T14:19:59.389Z,11.30
2022-11-04T14:22:49.972Z,11.30
2022-11-04T14:25:26.439Z,11.20
2022-11-04T14:27:56.826Z,11.20
2022-11-04T14:30:48.780Z,11.20
2022-11-04T14:33:42.133Z,11.20
2022-11-04T14:36:26.621Z,11.10
2022-11-04T14:38:57.634Z,11.10
2022-11-04T14:41:50.718Z,11.10
2022-11-04T14:44:22.539Z,11.10
2022-11-04T14:46:53.615Z,11.10
2022-11-04T14:49:38.350Z,11.10
2022-11-04T14:52:08.233Z,11.10
2022-11-04T14:54:38.469Z,11.10
2022-11-04T14:57:15.258Z,11.10
2022-11-04T14:59:44.054Z,11.10
2022-11-04T15:02:17.320Z,11.10
2022-11-04T15:04:51.904Z,11.10
2022-11-04T15:07:34.076Z,11.10
2022-11-04T15:10:03.322Z,11.00
2022-11-04T15:12:50.197Z,11.00
2022-11-04T15:15:34.436Z,11.00
2022-11-04T15:18:06.738Z,11.00
2022-11-04T15:20:39.396Z,10.90
2022-11-04T15:23:09.072Z,10.80
2022-11-04T15:25:38.184Z,10.80
2022-11-04T15:28:18.711Z,10.70
2022-11-04T15:31:02.117Z,10.80
2022-11-04T15:33:32.143Z,10.70
2022-11-04T15:36:00.659Z,10.60
2022-11-04T15:38:29.638Z,10.60
2022-11-04T15:41:19.964Z,10.50
2022-11-04T15:43:49.978Z,10.40
2022-11-04T15:46:19.900Z,10.40
2022-11-04T15:49:05.620Z,10.50
2022-11-04T15:51:40.340Z,10.40
2022-11-04T15:54:19.671Z,10.40
2022-11-04T15:56:52.289Z,10.40
2022-11-04T15:59:23.107Z,10.40
2022-11-04T16:01:53.272Z,10.30
2022-11-04T16:04:24.243Z,10.30
2022-11-04T16:07:22.030Z,10.30
2022-11-04T16:09:52.641Z,10.30
2022-11-04T16:12:28.498Z,10.30
2022-11-04T16:14:59.310Z,10.30
2022-11-04T16:17:28.681Z,10.30
2022-11-04T16:19:59.942Z,10.30
2022-11-04T16:22:32.586Z,10.30
2022-11-04T16:25:02.629Z,10.30
2022-11-04T16:27:33.287Z,10.30
2022-11-04T16:30:10.689Z,10.30
2022-11-04T16:32:44.022Z,10.30
2022-11-04T16:35:18.807Z,10.40
2022-11-04T16:37:47.625Z,10.30
2022-11-04T16:40:16.460Z,10.30
2022-11-04T16:42:46.005Z,10.30
2022-11-04T16:45:25.346Z,10.30
2022-11-04T16:47:54.716Z,10.20
2022-11-04T16:50:24.599Z,10.30
2022-11-04T16:52:53.817Z,10.20
2022-11-04T16:55:23.881Z,10.20
2022-11-04T16:57:57.421Z,10.20
2022-11-04T17:00:28.190Z,10.20
2022-11-04T17:02:56.410Z,10.20
2022-11-04T17:05:24.570Z,10.20
2022-11-04T17:07:56.592Z,10.20
2022-11-04T17:10:29.374Z,10.20
2022-11-04T17:12:57.603Z,10.10
2022-11-04T17:15:27.266Z,10.10
2022-11-04T17:17:55.561Z,10.10
2022-11-04T17:20:23.865Z,10.10
2022-11-04T17:22:52.909Z,10.10
2022-11-04T17:25:24.079Z,10.10
2022-11-04T17:27:52.358Z,10.10
2022-11-04T17:30:21.814Z,10.00
2022-11-04T17:32:51.619Z,10.00
2022-11-04T17:35:20.071Z,10.00
2022-11-04T17:37:48.158Z,10.00
2022-11-04T17:40:18.773Z,9.90
2022-11-04T17:43:10.068Z,9.90
2022-11-04T17:45:40.096Z,9.90
2022-11-04T17:48:10.356Z,9.90
2022-11-04T17:50:42.365Z,9.90
2022-11-04T17:53:10.915Z,9.90
2022-11-04T17:55:40.976Z,9.90
2022-11-04T17:58:10.574Z,9.90
2022-11-04T18:00:38.751Z,9.90
2022-11-04T18:03:12.398Z,9.80
2022-11-04T18:05:40.675Z,9.70
2022-11-04T18:08:08.742Z,9.70
2022-11-04T18:10:36.788Z,9.70
2022-11-04T18:13:03.920Z,9.70
2022-11-04T18:15:31.978Z,9.80
2022-11-04T18:18:01.737Z,9.80
2022-11-04T18:20:31.170Z,9.80
2022-11-04T18:23:00.144Z,9.70
2022-11-04T18:25:28.194Z,9.70
2022-11-04T18:27:56.319Z,9.60
2022-11-04T18:30:24.411Z,9.50
2022-11-04T18:32:52.722Z,9.50
2022-11-04T18:35:21.018Z,9.50
2022-11-04T18:37:50.546Z,9.60
2022-11-04T18:40:18.891Z,9.60
2022-11-04T18:42:47.099Z,9.60
2022-11-04T18:45:15.296Z,9.60
2022-11-04T18:47:43.334Z,9.60
2022-11-04T18:50:11.711Z,9.60
2022-11-04T18:52:40.380Z,9.70
2022-11-04T18:55:10.937Z,9.70
2022-11-04T18:57:38.999Z,9.70
2022-11-04T19:00:11.685Z,9.70
2022-11-04T19:02:42.975Z,9.60
2022-11-04T19:05:14.109Z,9.60
2022-11-04T19:07:42.546Z,9.50
2022-11-04T19:10:13.355Z,9.40
2022-11-04T19:12:59.173Z,9.30
2022-11-04T19:15:27.396Z,9.20
2022-11-04T19:17:58.245Z,9.20
2022-11-04T19:20:26.402Z,9.20
2022-11-04T19:22:54.664Z,9.20
2022-11-04T19:25:24.162Z,9.20
2022-11-04T19:28:11.453Z,9.20
2022-11-04T19:30:40.073Z,9.20
2022-11-04T19:33:08.193Z,9.20
2022-11-04T19:35:36.220Z,9.10
2022-11-04T19:38:04.510Z,9.20
2022-11-04T19:40:38.121Z,9.10
2022-11-04T19:43:10.753Z,9.00
2022-11-04T19:45:39.359Z,8.90
2022-11-04T19:48:08.510Z,8.90
2022-11-04T19:50:41.048Z,8.80
2022-11-04T19:53:09.841Z,8.80
2022-11-04T19:55:39.648Z,8.80
2022-11-04T19:58:08.355Z,8.90
2022-11-04T20:00:36.724Z,8.90
2022-11-04T20:03:13.339Z,9.00
2022-11-04T20:05:43.515Z,9.00
2022-11-04T20:08:12.777Z,9.00
2022-11-04T20:10:44.116Z,8.90
2022-11-04T20:13:34.055Z,8.70
2022-11-04T20:16:03.050Z,8.60
2022-11-04T20:18:31.317Z,8.60
2022-11-04T20:20:59.496Z,8.60
2022-11-04T20:23:28.004Z,8.70
2022-11-04T20:25:57.618Z,8.80
2022-11-04T20:28:26.249Z,9.00
2022-11-04T20:30:54.255Z,9.10
2022-11-04T20:33:22.736Z,9.20
2022-11-04T20:35:51.007Z,9.30
2022-11-04T20:38:19.382Z,9.30
2022-11-04T20:40:48.374Z,9.30
2022-11-04T20:43:17.815Z,9.40
2022-11-04T20:45:51.218Z,9.40
2022-11-04T20:48:20.528Z,9.40
2022-11-04T20:50:48.553Z,9.30
2022-11-04T20:53:16.683Z,9.40
2022-11-04T20:55:44.931Z,9.40
2022-11-04T20:58:13.243Z,9.40
2022-11-04T21:00:42.887Z,9.40
2022-11-04T21:03:10.953Z,9.40
2022-11-04T21:05:41.637Z,9.40
2022-11-04T21:08:09.867Z,9.40
2022-11-04T21:10:38.253Z,9.40
2022-11-04T21:13:06.328Z,9.40
2022-11-04T21:15:44.458Z,9.40
2022-11-04T21:18:14.708Z,9.40
2022-11-04T21:20:43.622Z,9.50
2022-11-04T21:23:12.729Z,9.50
2022-11-04T21:25:42.162Z,9.50
2022-11-04T21:28:11.451Z,9.50
2022-11-04T21:30:42.030Z,9.50
2022-11-04T21:33:10.151Z,9.50
2022-11-04T21:35:40.627Z,9.50
2022-11-04T21:38:11.665Z,9.50
2022-11-04T21:40:39.940Z,9.50
2022-11-04T21:43:11.014Z,9.50
2022-11-04T21:45:39.286Z,9.50
2022-11-04T21:48:08.079Z,9.50
2022-11-04T21:50:36.532Z,9.50
2022-11-04T21:53:06.684Z,9.50
2022-11-04T21:55:34.916Z,9.50
2022-11-04T21:58:05.891Z,9.50
2022-11-04T22:00:33.923Z,9.50
2022-11-04T22:03:02.022Z,9.50
2022-11-04T22:05:32.225Z,9.50
2022-11-04T22:08:18.546Z,9.50
2022-11-04T22:10:48.457Z,9.40
2022-11-04T22:13:16.798Z,9.40
2022-11-04T22:16:01.011Z,9.40
2022-11-04T22:18:31.228Z,9.40
2022-11-04T22:21:03.088Z,9.40
2022-11-04T22:23:31.183Z,9.40
2022-11-04T22:26:05.771Z,9.40
2022-11-04T22:28:34.435Z,9.40
2022-11-04T22:31:07.683Z,9.40
2022-11-04T22:33:36.069Z,9.40
2022-11-04T22:36:04.275Z,9.50
2022-11-04T22:38:32.561Z,9.50
2022-11-04T22:41:03.668Z,9.50
2022-11-04T22:43:31.750Z,9.40
2022-11-04T22:46:04.303Z,9.40
2022-11-04T22:48:32.327Z,9.40
2022-11-04T22:51:00.728Z,9.40
2022-11-04T22:53:28.949Z,9.40
2022-11-04T22:56:00.039Z,9.40
2022-11-04T22:58:30.320Z,9.40
2022-11-04T23:01:00.532Z,9.30
2022-11-04T23:03:29.164Z,9.30
2022-11-04T23:05:58.540Z,9.30
2022-11-04T23:08:28.404Z,9.20
2022-11-04T23:11:15.253Z,9.10
2022-11-04T23:14:15.648Z,9.10
2022-11-04T23:17:05.897Z,9.00
2022-11-04T23:19:34.205Z,9.10
2022-11-04T23:22:19.683Z,9.00
2022-11-04T23:25:04.995Z,9.00
2022-11-04T23:27:51.063Z,8.90
2022-11-04T23:30:25.467Z,8.80
2022-11-04T23:32:55.569Z,8.70
2022-11-04T23:35:42.451Z,8.60
2022-11-04T23:38:11.029Z,8.60
2022-11-04T23:40:39.241Z,8.70
2022-11-04T23:43:06.237Z,8.80
2022-11-04T23:45:55.528Z,8.90
2022-11-04T23:48:40.915Z,9.00
2022-11-04T23:51:30.076Z,9.10
2022-11-04T23:54:15.508Z,9.20
2022-11-04T23:57:01.056Z,9.30
2022-11-04T23:59:46.447Z,9.30
